createdAt,value
2023-03-19T00:00:33.693Z,101536.09
2023-03-19T00:03:01.324Z,101528.47
2023-03-19T00:05:28.888Z,101531.44
2023-03-19T00:07:56.946Z,101522.00
2023-03-19T00:10:24.414Z,101515.53
2023-03-19T00:12:52.589Z,101521.22
2023-03-19T00:15:20.380Z,101518.78
2023-03-19T00:17:48.620Z,101507.81
2023-03-19T00:20:16.147Z,101502.34
2023-03-19T00:22:43.580Z,101509.75
2023-03-19T00:25:10.981Z,101507.34
2023-03-19T00:27:38.567Z,101512.78
2023-03-19T00:30:07.676Z,101508.56
2023-03-19T00:32:36.997Z,101519.22
2023-03-19T00:35:06.599Z,101518.88
2023-03-19T00:37:35.561Z,101516.13
2023-03-19T00:40:04.453Z,101515.63
2023-03-19T00:42:32.277Z,101513.13
2023-03-19T00:44:59.904Z,101521.47
2023-03-19T00:47:27.777Z,101518.50
2023-03-19T00:49:55.766Z,101519.03
2023-03-19T00:52:23.255Z,101522.41
2023-03-19T00:54:51.096Z,101519.88
2023-03-19T00:57:20.083Z,101510.06
2023-03-19T00:59:48.009Z,101509.91
2023-03-19T01:02:15.791Z,101507.28
2023-03-19T01:04:43.834Z,101521.38
2023-03-19T01:07:11.362Z,101522.22
2023-03-19T01:09:39.582Z,101518.66
2023-03-19T01:12:08.228Z,101515.25
2023-03-19T01:14:35.648Z,101509.63
2023-03-19T01:17:03.468Z,101511.78
2023-03-19T01:19:30.999Z,101521.13
2023-03-19T01:21:58.569Z,101523.78
2023-03-19T01:24:30.325Z,101527.38
2023-03-19T01:26:57.890Z,101524.28
2023-03-19T01:29:31.486Z,101537.56
2023-03-19T01:32:04.137Z,101531.97
2023-03-19T01:34:43.091Z,101535.00
2023-03-19T01:37:13.737Z,101523.13
2023-03-19T01:39:42.343Z,101513.63
2023-03-19T01:42:14.111Z,101517.00
2023-03-19T01:45:37.918Z,101522.59
2023-03-19T01:49:00.289Z,101519.91
2023-03-19T01:51:36.486Z,101516.03
2023-03-19T01:54:13.785Z,101506.50
2023-03-19T01:57:09.729Z,101506.84
2023-03-19T02:00:00.547Z,101503.59
2023-03-19T02:02:54.335Z,101496.94
2023-03-19T02:05:47.737Z,101499.56
2023-03-19T02:08:17.614Z,101495.16
2023-03-19T02:10:47.805Z,101495.31
2023-03-19T02:13:16.734Z,101503.63
2023-03-19T02:15:44.607Z,101507.31
2023-03-19T02:18:12.451Z,101505.41
2023-03-19T02:21:03.658Z,101504.91
2023-03-19T02:23:47.564Z,101501.44
2023-03-19T02:26:21.842Z,101499.66
2023-03-19T02:28:53.055Z,101490.09
2023-03-19T02:31:27.834Z,101494.88
2023-03-19T02:34:00.302Z,101488.47
2023-03-19T02:36:33.852Z,101489.09
2023-03-19T02:39:04.326Z,101484.66
2023-03-19T02:41:33.111Z,101480.16
2023-03-19T02:44:03.702Z,101476.06
2023-03-19T02:46:31.869Z,101474.03
2023-03-19T02:48:59.354Z,101479.72
2023-03-19T02:51:27.277Z,101481.59
2023-03-19T02:53:54.679Z,101476.56
2023-03-19T02:56:22.140Z,101481.63
2023-03-19T02:58:50.520Z,101479.84
2023-03-19T03:01:19.086Z,101481.19
2023-03-19T03:03:47.199Z,101488.94
2023-03-19T03:06:15.815Z,101487.31
2023-03-19T03:08:43.809Z,101486.09
2023-03-19T03:11:12.523Z,101484.03
2023-03-19T03:13:40.033Z,101489.78
2023-03-19T03:16:07.602Z,101492.97
2023-03-19T03:18:36.162Z,101488.47
2023-03-19T03:21:03.663Z,101496.06
2023-03-19T03:23:31.091Z,101493.28
2023-03-19T03:26:00.650Z,101496.28
2023-03-19T03:28:28.168Z,101510.66
2023-03-19T03:31:02.329Z,101515.28
2023-03-19T03:33:30.127Z,101516.47
2023-03-19T03:35:58.213Z,101519.75
2023-03-19T03:38:27.056Z,101529.56
2023-03-19T03:40:54.467Z,101525.78
2023-03-19T03:43:26.665Z,101526.72
2023-03-19T03:45:54.834Z,101528.19
2023-03-19T03:48:23.097Z,101535.91
2023-03-19T03:50:51.630Z,101528.41
2023-03-19T03:53:23.722Z,101534.94
2023-03-19T03:55:51.250Z,101534.41
2023-03-19T03:58:22.221Z,101536.50
2023-03-19T04:00:50.731Z,101542.53
2023-03-19T04:03:18.376Z,101545.22
2023-03-19T04:05:46.358Z,101541.75
2023-03-19T04:08:14.273Z,101540.69
2023-03-19T04:10:43.759Z,101534.69
2023-03-19T04:13:12.042Z,101531.63
2023-03-19T04:15:42.865Z,101533.09
2023-03-19T04:18:12.287Z,101538.31
2023-03-19T04:20:41.204Z,101543.47
2023-03-19T04:23:08.690Z,101545.53
2023-03-19T04:25:39.482Z,101550.13
2023-03-19T04:28:07.114Z,101553.03
2023-03-19T04:30:35.688Z,101543.50
2023-03-19T04:33:04.822Z,101550.41
2023-03-19T04:35:32.479Z,101554.19
2023-03-19T04:38:00.518Z,101550.25
2023-03-19T04:40:28.587Z,101554.63
2023-03-19T04:42:56.514Z,101557.25
2023-03-19T04:45:34.331Z,101558.06
2023-03-19T04:48:02.418Z,101557.19
2023-03-19T04:50:31.602Z,101551.25
2023-03-19T04:53:00.245Z,101548.69
2023-03-19T04:55:28.201Z,101554.25
2023-03-19T04:58:04.275Z,101547.63
2023-03-19T05:00:35.125Z,101549.50
2023-03-19T05:03:02.970Z,101545.50
2023-03-19T05:05:32.450Z,101538.97
2023-03-19T05:08:02.027Z,101553.00
2023-03-19T05:10:29.721Z,101555.09
2023-03-19T05:12:58.073Z,101546.41
2023-03-19T05:15:25.605Z,101554.34
2023-03-19T05:18:00.415Z,101541.13
2023-03-19T05:20:38.803Z,101533.56
2023-03-19T05:23:17.979Z,101546.06
2023-03-19T05:26:00.794Z,101562.31
2023-03-19T05:28:47.219Z,101552.22
2023-03-19T05:31:18.282Z,101551.31
2023-03-19T05:33:49.789Z,101562.13
2023-03-19T05:36:18.068Z,101569.75
2023-03-19T05:39:02.231Z,101560.69
2023-03-19T05:41:35.111Z,101563.06
2023-03-19T05:44:05.625Z,101567.56
2023-03-19T05:46:53.340Z,101566.00
2023-03-19T05:49:24.377Z,101570.34
2023-03-19T05:51:52.961Z,101563.16
2023-03-19T05:54:20.551Z,101570.97
2023-03-19T05:56:57.897Z,101568.72
2023-03-19T05:59:38.132Z,101578.75
2023-03-19T06:02:22.044Z,101584.88
2023-03-19T06:04:53.726Z,101593.59
2023-03-19T06:07:26.320Z,101593.59
2023-03-19T06:09:54.442Z,101601.53
2023-03-19T06:12:22.226Z,101598.13
2023-03-19T06:15:25.388Z,101602.56
2023-03-19T06:18:08.656Z,101605.91
2023-03-19T06:20:36.557Z,101605.66
2023-03-19T06:23:04.569Z,101601.72
2023-03-19T06:25:32.226Z,101612.69
2023-03-19T06:27:59.853Z,101609.56
2023-03-19T06:30:34.712Z,101615.47
2023-03-19T06:33:05.324Z,101616.72
2023-03-19T06:35:33.693Z,101618.63
2023-03-19T06:38:02.171Z,101610.16
2023-03-19T06:40:29.685Z,101614.41
2023-03-19T06:42:57.136Z,101612.94
2023-03-19T06:45:25.270Z,101613.72
2023-03-19T06:47:53.635Z,101624.06
2023-03-19T06:50:21.490Z,101619.03
2023-03-19T06:52:49.289Z,101619.34
2023-03-19T06:55:17.837Z,101616.97
2023-03-19T06:57:49.404Z,101628.88
2023-03-19T07:00:17.360Z,101629.31
2023-03-19T07:02:45.331Z,101625.53
2023-03-19T07:05:13.150Z,101628.94
2023-03-19T07:07:41.351Z,101625.94
2023-03-19T07:10:09.919Z,101625.97
2023-03-19T07:12:37.296Z,101635.75
2023-03-19T07:15:05.160Z,101630.75
2023-03-19T07:17:33.076Z,101641.97
2023-03-19T07:20:00.656Z,101646.56
2023-03-19T07:22:28.621Z,101650.25
2023-03-19T07:24:56.090Z,101651.47
2023-03-19T07:27:23.539Z,101647.38
2023-03-19T07:29:50.980Z,101651.09
2023-03-19T07:32:18.355Z,101653.47
2023-03-19T07:34:45.838Z,101664.31
2023-03-19T07:37:13.294Z,101659.41
2023-03-19T07:39:41.490Z,101664.53
2023-03-19T07:42:08.887Z,101659.59
2023-03-19T07:44:40.966Z,101665.03
2023-03-19T07:47:19.094Z,101654.44
2023-03-19T07:49:55.814Z,101656.16
2023-03-19T07:52:23.998Z,101657.66
2023-03-19T07:54:52.380Z,101660.59
2023-03-19T07:57:20.975Z,101661.13
2023-03-19T07:59:49.184Z,101659.06
2023-03-19T08:02:16.982Z,101657.72
2023-03-19T08:04:44.595Z,101658.66
2023-03-19T08:07:12.823Z,101660.75
2023-03-19T08:09:41.325Z,101660.31
2023-03-19T08:12:09.470Z,101658.44
2023-03-19T08:14:37.490Z,101652.88
2023-03-19T08:17:05.698Z,101653.69
2023-03-19T08:19:33.351Z,101667.13
2023-03-19T08:22:01.431Z,101667.41
2023-03-19T08:24:28.760Z,101665.78
2023-03-19T08:26:56.309Z,101669.09
2023-03-19T08:29:26.322Z,101670.41
2023-03-19T08:31:56.072Z,101666.25
2023-03-19T08:34:24.159Z,101661.47
2023-03-19T08:36:51.505Z,101665.56
2023-03-19T08:39:19.373Z,101669.09
2023-03-19T08:41:46.809Z,101664.78
2023-03-19T08:44:14.295Z,101666.28
2023-03-19T08:46:42.762Z,101673.81
2023-03-19T08:49:10.345Z,101668.25
2023-03-19T08:51:37.702Z,101670.63
2023-03-19T08:54:05.853Z,101674.56
2023-03-19T08:56:34.072Z,101668.00
2023-03-19T08:59:01.847Z,101671.38
2023-03-19T09:01:29.364Z,101669.03
2023-03-19T09:03:57.184Z,101674.28
2023-03-19T09:06:25.025Z,101675.28
2023-03-19T09:08:52.617Z,101672.50
2023-03-19T09:11:20.439Z,101679.66
2023-03-19T09:13:48.330Z,101677.03
2023-03-19T09:16:16.809Z,101672.84
2023-03-19T09:18:44.481Z,101680.91
2023-03-19T09:21:12.101Z,101676.97
2023-03-19T09:23:41.061Z,101687.03
2023-03-19T09:26:08.560Z,101689.75
2023-03-19T09:28:36.535Z,101692.19
2023-03-19T09:31:07.226Z,101692.59
2023-03-19T09:33:35.356Z,101693.41
2023-03-19T09:36:03.254Z,101681.56
2023-03-19T09:38:31.210Z,101681.09
2023-03-19T09:41:13.113Z,101673.03
2023-03-19T09:43:49.924Z,101667.81
2023-03-19T09:46:27.602Z,101667.44
2023-03-19T09:49:01.887Z,101666.47
2023-03-19T09:52:02.761Z,101656.28
2023-03-19T09:54:40.208Z,101663.41
2023-03-19T09:57:10.177Z,101657.91
2023-03-19T09:59:38.853Z,101661.66
2023-03-19T10:02:31.668Z,101663.31
2023-03-19T10:05:15.331Z,101654.22
2023-03-19T10:08:01.195Z,101657.81
2023-03-19T10:10:36.714Z,101665.88
2023-03-19T10:13:39.627Z,101651.75
2023-03-19T10:16:16.946Z,101658.94
2023-03-19T10:18:52.806Z,101653.84
2023-03-19T10:21:32.446Z,101655.53
2023-03-19T10:24:21.897Z,101655.31
2023-03-19T10:26:56.522Z,101650.69
2023-03-19T10:29:24.507Z,101648.13
2023-03-19T10:32:20.609Z,101646.88
2023-03-19T10:34:50.520Z,101638.84
2023-03-19T10:37:27.368Z,101641.50
2023-03-19T10:40:00.509Z,101642.53
2023-03-19T10:42:48.986Z,101645.78
2023-03-19T10:45:31.721Z,101638.22
2023-03-19T10:48:01.642Z,101637.56
2023-03-19T10:50:34.565Z,101626.84
2023-03-19T10:53:48.758Z,101632.84
2023-03-19T10:56:34.052Z,101634.59
2023-03-19T10:59:05.409Z,101633.97
2023-03-19T11:01:36.485Z,101630.34
2023-03-19T11:04:14.765Z,101630.38
2023-03-19T11:06:42.150Z,101622.34
2023-03-19T11:09:10.402Z,101623.56
2023-03-19T11:11:51.154Z,101611.81
2023-03-19T11:14:41.477Z,101614.34
2023-03-19T11:17:12.334Z,101612.84
2023-03-19T11:19:41.737Z,101611.81
2023-03-19T11:22:10.043Z,101608.44
2023-03-19T11:24:40.057Z,101607.91
2023-03-19T11:27:09.994Z,101595.81
2023-03-19T11:29:45.718Z,101599.63
2023-03-19T11:32:32.210Z,101591.34
2023-03-19T11:35:05.575Z,101581.13
2023-03-19T11:37:42.069Z,101582.91
2023-03-19T11:40:25.330Z,101582.97
2023-03-19T11:42:55.942Z,101572.84
2023-03-19T11:45:56.180Z,101575.81
2023-03-19T11:48:43.256Z,101570.00
2023-03-19T11:51:15.378Z,101572.81
2023-03-19T11:54:19.972Z,101562.34
2023-03-19T11:56:56.210Z,101577.53
2023-03-19T11:59:48.685Z,101570.56
2023-03-19T12:02:47.003Z,101560.22
2023-03-19T12:05:26.624Z,101555.16
2023-03-19T12:08:23.127Z,101564.81
2023-03-19T12:11:04.366Z,101555.16
2023-03-19T12:13:47.761Z,101558.06
2023-03-19T12:16:46.121Z,101550.09
2023-03-19T12:19:30.486Z,101547.72
2023-03-19T12:22:16.316Z,101539.22
2023-03-19T12:25:09.173Z,101543.53
2023-03-19T12:27:47.745Z,101540.97
2023-03-19T12:30:45.329Z,101531.66
2023-03-19T12:33:37.695Z,101529.31
2023-03-19T12:36:12.257Z,101519.03
2023-03-19T12:38:45.764Z,101525.03
2023-03-19T12:41:23.702Z,101517.88
2023-03-19T12:43:57.223Z,101523.19
2023-03-19T12:46:32.053Z,101519.13
2023-03-19T12:49:08.121Z,101519.91
2023-03-19T12:51:40.527Z,101514.91
2023-03-19T12:54:29.302Z,101516.84
2023-03-19T12:57:04.135Z,101511.50
2023-03-19T12:59:51.653Z,101503.69
2023-03-19T13:02:31.114Z,101510.66
2023-03-19T13:05:08.238Z,101500.69
2023-03-19T13:07:57.856Z,101505.22
2023-03-19T13:10:26.868Z,101500.38
2023-03-19T13:12:54.937Z,101497.81
2023-03-19T13:15:37.441Z,101499.31
2023-03-19T13:18:07.997Z,101501.09
2023-03-19T13:20:53.936Z,101493.84
2023-03-19T13:23:27.387Z,101494.00
2023-03-19T13:26:00.035Z,101484.91
2023-03-19T13:29:13.713Z,101487.56
2023-03-19T13:31:43.325Z,101481.75
2023-03-19T13:34:17.207Z,101490.50
2023-03-19T13:36:48.336Z,101474.31
2023-03-19T13:39:20.083Z,101484.53
2023-03-19T13:41:48.281Z,101480.78
2023-03-19T13:44:48.343Z,101472.59
2023-03-19T13:47:33.723Z,101478.00
2023-03-19T13:50:19.500Z,101471.50
2023-03-19T13:52:53.480Z,101476.50
2023-03-19T13:55:31.151Z,101478.47
2023-03-19T13:58:17.692Z,101473.19
2023-03-19T14:00:45.654Z,101472.84
2023-03-19T14:03:25.681Z,101480.72
2023-03-19T14:05:56.560Z,101471.59
2023-03-19T14:08:31.590Z,101473.91
2023-03-19T14:11:03.646Z,101474.63
2023-03-19T14:13:41.244Z,101475.38
2023-03-19T14:16:24.678Z,101465.59
2023-03-19T14:18:57.565Z,101461.56
2023-03-19T14:21:46.869Z,101463.47
2023-03-19T14:24:55.909Z,101463.28
2023-03-19T14:27:33.188Z,101463.91
2023-03-19T14:30:10.543Z,101460.38
2023-03-19T14:32:42.344Z,101464.47
2023-03-19T14:35:17.077Z,101463.28
2023-03-19T14:37:49.273Z,101461.97
2023-03-19T14:40:22.673Z,101461.59
2023-03-19T14:43:27.062Z,101455.88
2023-03-19T14:45:59.975Z,101461.56
2023-03-19T14:48:46.410Z,101459.88
2023-03-19T14:51:35.470Z,101459.06
2023-03-19T14:54:14.005Z,101449.59
2023-03-19T14:56:41.405Z,101449.97
2023-03-19T14:59:11.874Z,101447.88
2023-03-19T15:01:44.570Z,101446.19
2023-03-19T15:04:15.922Z,101453.78
2023-03-19T15:06:51.459Z,101453.59
2023-03-19T15:09:33.640Z,101453.19
2023-03-19T15:12:33.663Z,101453.34
2023-03-19T15:15:16.390Z,101453.78
2023-03-19T15:17:51.618Z,101453.75
2023-03-19T15:20:26.486Z,101456.50
2023-03-19T15:23:01.723Z,101455.53
2023-03-19T15:25:29.238Z,101455.16
2023-03-19T15:28:14.146Z,101455.25
2023-03-19T15:30:53.418Z,101454.81
2023-03-19T15:33:41.428Z,101461.81
2023-03-19T15:36:24.318Z,101462.59
2023-03-19T15:38:57.845Z,101454.63
2023-03-19T15:41:31.078Z,101450.50
2023-03-19T15:44:01.637Z,101449.97
2023-03-19T15:46:33.791Z,101456.09
2023-03-19T15:49:28.531Z,101457.75
2023-03-19T15:52:01.225Z,101454.34
2023-03-19T15:54:28.688Z,101451.38
2023-03-19T15:56:57.465Z,101456.38
2023-03-19T15:59:30.094Z,101459.81
2023-03-19T16:02:02.597Z,101454.00
2023-03-19T16:04:30.533Z,101459.25
2023-03-19T16:06:59.202Z,101458.66
2023-03-19T16:09:30.153Z,101464.31
2023-03-19T16:11:58.739Z,101464.56
2023-03-19T16:14:31.539Z,101463.09
2023-03-19T16:17:14.468Z,101462.41
2023-03-19T16:19:52.535Z,101454.81
2023-03-19T16:22:25.895Z,101453.56
2023-03-19T16:24:55.253Z,101461.41
2023-03-19T16:27:37.763Z,101460.13
2023-03-19T16:30:19.941Z,101458.03
2023-03-19T16:32:59.036Z,101464.56
2023-03-19T16:35:28.298Z,101462.69
2023-03-19T16:38:18.569Z,101469.22
2023-03-19T16:40:49.252Z,101474.06
2023-03-19T16:43:19.334Z,101473.22
2023-03-19T16:45:51.712Z,101474.47
2023-03-19T16:48:19.797Z,101466.25
2023-03-19T16:50:47.656Z,101465.22
2023-03-19T16:53:26.806Z,101471.31
2023-03-19T16:55:56.037Z,101476.78
2023-03-19T16:58:30.459Z,101482.50
2023-03-19T17:00:58.696Z,101484.38
2023-03-19T17:03:26.156Z,101481.41
2023-03-19T17:05:54.021Z,101481.81
2023-03-19T17:08:23.323Z,101488.03
2023-03-19T17:10:53.949Z,101493.09
2023-03-19T17:13:29.800Z,101492.97
2023-03-19T17:15:59.737Z,101491.59
2023-03-19T17:18:36.074Z,101495.97
2023-03-19T17:21:04.229Z,101498.34
2023-03-19T17:23:32.457Z,101497.78
2023-03-19T17:26:00.788Z,101507.63
2023-03-19T17:28:28.430Z,101500.44
2023-03-19T17:30:56.723Z,101503.94
2023-03-19T17:33:30.231Z,101510.28
2023-03-19T17:35:58.671Z,101515.34
2023-03-19T17:38:33.256Z,101517.78
2023-03-19T17:41:02.730Z,101522.31
2023-03-19T17:43:30.324Z,101522.44
2023-03-19T17:45:58.177Z,101520.94
2023-03-19T17:48:26.993Z,101516.69
2023-03-19T17:51:01.159Z,101519.78
2023-03-19T17:53:29.951Z,101514.94
2023-03-19T17:55:57.316Z,101510.13
2023-03-19T17:58:25.624Z,101516.88
2023-03-19T18:00:53.286Z,101508.75
2023-03-19T18:03:23.805Z,101518.25
2023-03-19T18:05:51.959Z,101522.03
2023-03-19T18:08:23.808Z,101522.56
2023-03-19T18:10:51.443Z,101526.75
2023-03-19T18:13:18.808Z,101522.41
2023-03-19T18:15:46.881Z,101528.66
2023-03-19T18:18:18.757Z,101525.41
2023-03-19T18:20:47.354Z,101530.88
2023-03-19T18:23:16.235Z,101530.09
2023-03-19T18:25:45.528Z,101534.13
2023-03-19T18:28:13.668Z,101537.00
2023-03-19T18:30:43.468Z,101533.78
2023-03-19T18:33:23.844Z,101539.06
2023-03-19T18:35:53.603Z,101528.41
2023-03-19T18:38:25.358Z,101531.19
2023-03-19T18:40:53.289Z,101536.78
2023-03-19T18:43:20.908Z,101539.41
2023-03-19T18:45:52.023Z,101538.28
2023-03-19T18:48:25.259Z,101545.50
2023-03-19T18:50:53.521Z,101546.53
2023-03-19T18:53:21.913Z,101549.66
2023-03-19T18:55:49.613Z,101551.78
2023-03-19T18:58:21.552Z,101557.16
2023-03-19T19:00:51.255Z,101560.22
2023-03-19T19:03:26.023Z,101566.97
2023-03-19T19:05:53.907Z,101561.50
2023-03-19T19:08:21.966Z,101562.06
2023-03-19T19:10:54.039Z,101560.00
2023-03-19T19:13:25.959Z,101561.94
2023-03-19T19:15:54.026Z,101570.06
2023-03-19T19:18:24.752Z,101565.78
2023-03-19T19:20:53.924Z,101563.19
2023-03-19T19:23:22.327Z,101574.13
2023-03-19T19:25:55.298Z,101578.66
2023-03-19T19:28:30.533Z,101573.84
2023-03-19T19:30:59.810Z,101571.72
2023-03-19T19:33:31.748Z,101577.06
2023-03-19T19:35:59.419Z,101572.81
2023-03-19T19:38:27.075Z,101572.78
2023-03-19T19:40:58.339Z,101577.47
2023-03-19T19:43:30.855Z,101570.88
2023-03-19T19:45:59.601Z,101577.47
2023-03-19T19:48:29.160Z,101576.38
2023-03-19T19:50:57.313Z,101583.72
2023-03-19T19:53:27.435Z,101580.16
2023-03-19T19:55:55.968Z,101585.88
2023-03-19T19:58:32.651Z,101577.22
2023-03-19T20:01:04.375Z,101575.72
2023-03-19T20:03:34.455Z,101584.19
2023-03-19T20:06:02.127Z,101568.75
2023-03-19T20:08:30.117Z,101584.75
2023-03-19T20:10:58.216Z,101586.53
2023-03-19T20:13:34.130Z,101582.88
2023-03-19T20:16:03.241Z,101583.34
2023-03-19T20:18:35.626Z,101583.72
2023-03-19T20:21:04.327Z,101584.63
2023-03-19T20:23:32.025Z,101590.41
2023-03-19T20:25:59.829Z,101593.75
2023-03-19T20:28:35.494Z,101598.91
2023-03-19T20:31:04.403Z,101599.22
2023-03-19T20:33:34.352Z,101597.13
2023-03-19T20:36:03.271Z,101605.13
2023-03-19T20:38:31.372Z,101608.50
2023-03-19T20:40:59.088Z,101614.16
2023-03-19T20:43:32.816Z,101611.72
2023-03-19T20:46:04.316Z,101608.31
2023-03-19T20:48:33.173Z,101609.38
2023-03-19T20:51:02.515Z,101610.19
2023-03-19T20:53:31.020Z,101613.78
2023-03-19T20:56:00.137Z,101605.13
2023-03-19T20:58:30.930Z,101608.88
2023-03-19T21:00:59.305Z,101614.06
2023-03-19T21:03:28.993Z,101607.47
2023-03-19T21:06:23.386Z,101607.03
2023-03-19T21:08:56.938Z,101602.22
2023-03-19T21:11:39.772Z,101603.16
2023-03-19T21:14:16.226Z,101608.22
2023-03-19T21:16:44.138Z,101608.63
2023-03-19T21:19:12.770Z,101610.97
2023-03-19T21:21:42.877Z,101606.81
2023-03-19T21:24:19.668Z,101606.53
2023-03-19T21:26:47.513Z,101606.63
2023-03-19T21:29:22.081Z,101611.03
2023-03-19T21:31:49.794Z,101608.03
2023-03-19T21:34:17.643Z,101607.22
2023-03-19T21:36:45.666Z,101611.72
2023-03-19T21:39:13.723Z,101615.28
2023-03-19T21:41:42.224Z,101613.59
2023-03-19T21:44:16.258Z,101614.81
2023-03-19T21:46:46.693Z,101616.88
2023-03-19T21:49:17.055Z,101613.97
2023-03-19T21:51:47.051Z,101627.22
2023-03-19T21:54:15.670Z,101629.13
2023-03-19T21:56:46.217Z,101630.53
2023-03-19T21:59:27.774Z,101630.91
2023-03-19T22:01:56.454Z,101626.00
2023-03-19T22:04:24.899Z,101619.91
2023-03-19T22:06:52.964Z,101612.34
2023-03-19T22:09:20.618Z,101613.50
2023-03-19T22:11:48.227Z,101617.06
2023-03-19T22:14:19.720Z,101604.75
2023-03-19T22:16:52.466Z,101601.63
2023-03-19T22:19:20.483Z,101610.59
2023-03-19T22:21:49.602Z,101608.31
2023-03-19T22:24:17.093Z,101602.47
2023-03-19T22:26:47.321Z,101608.50
2023-03-19T22:29:23.691Z,101608.78
2023-03-19T22:31:52.946Z,101608.97
2023-03-19T22:34:24.080Z,101617.53
2023-03-19T22:36:51.976Z,101609.16
2023-03-19T22:39:19.371Z,101609.38
2023-03-19T22:41:48.697Z,101601.72
2023-03-19T22:44:30.752Z,101602.88
2023-03-19T22:46:59.598Z,101597.03
2023-03-19T22:49:28.343Z,101597.31
2023-03-19T22:51:56.794Z,101601.56
2023-03-19T22:54:24.611Z,101593.28
2023-03-19T22:56:52.013Z,101592.97
2023-03-19T22:59:20.377Z,101590.16
2023-03-19T23:01:48.757Z,101592.19
2023-03-19T23:04:24.011Z,101578.53
2023-03-19T23:06:53.056Z,101583.56
2023-03-19T23:09:26.147Z,101587.75
2023-03-19T23:11:54.010Z,101585.50
2023-03-19T23:14:29.739Z,101580.09
2023-03-19T23:17:03.420Z,101576.44
2023-03-19T23:19:34.034Z,101577.50
2023-03-19T23:22:03.229Z,101582.75
2023-03-19T23:24:31.146Z,101582.75
2023-03-19T23:27:00.182Z,101578.88
2023-03-19T23:29:36.010Z,101576.81
2023-03-19T23:32:04.894Z,101570.47
2023-03-19T23:34:39.684Z,101570.38
2023-03-19T23:37:13.251Z,101566.22
2023-03-19T23:39:41.177Z,101573.09
2023-03-19T23:42:24.493Z,101573.75
2023-03-19T23:44:54.505Z,101565.63
2023-03-19T23:47:22.050Z,101567.28
2023-03-19T23:49:49.442Z,101573.66
2023-03-19T23:52:16.912Z,101566.31
2023-03-19T23:54:44.791Z,101566.34
2023-03-19T23:57:17.421Z,101565.72
2023-03-19T23:59:47.935Z,101563.59
